createdAt,value
2018-02-05T00:00:45.469Z,0
2018-02-05T00:01:36.748Z,0
2018-02-05T00:11:37.381Z,0
2018-02-05T00:12:26.812Z,0
2018-02-05T00:13:14.687Z,0
2018-02-05T00:14:05.545Z,0
2018-02-05T00:14:54.700Z,0
2018-02-05T00:15:44.822Z,0
2018-02-05T00:16:35.307Z,0
2018-02-05T00:17:25.781Z,0
2018-02-05T00:18:17.452Z,0
2018-02-05T00:19:12.361Z,0
2018-02-05T00:19:57.285Z,0
2018-02-05T00:20:51.581Z,0
2018-02-05T00:25:43.150Z,0
2018-02-05T00:26:34.012Z,0
2018-02-05T00:27:23.849Z,0
2018-02-05T00:28:16.503Z,0
2018-02-05T00:29:06.229Z,0
2018-02-05T00:30:07.175Z,0
2018-02-05T00:38:22.955Z,0
2018-02-05T00:39:15.856Z,0
2018-02-05T00:40:21.027Z,0
2018-02-05T00:41:24.890Z,0
2018-02-05T00:42:16.826Z,0
2018-02-05T00:43:09.060Z,0
2018-02-05T00:45:38.924Z,0
2018-02-05T00:46:31.729Z,0
2018-02-05T00:49:09.696Z,0
2018-02-05T00:50:01.312Z,0
2018-02-05T00:50:49.246Z,0
2018-02-05T00:51:38.745Z,0
2018-02-05T00:52:33.160Z,0
2018-02-05T00:53:20.629Z,0
2018-02-05T00:54:10.332Z,0
2018-02-05T00:57:13.103Z,0
2018-02-05T01:17:43.696Z,0
2018-02-05T01:30:03.513Z,0
2018-02-05T04:43:12.868Z,0
2018-02-05T04:44:20.736Z,0
2018-02-05T04:45:12.996Z,0
2018-02-05T04:46:14.299Z,0
2018-02-05T04:47:06.639Z,0
2018-02-05T04:47:59.101Z,0
2018-02-05T04:49:07.773Z,0
2018-02-05T05:01:09.553Z,0
2018-02-05T05:02:02.286Z,0
2018-02-05T05:02:56.878Z,0
2018-02-05T05:15:43.070Z,0
2018-02-05T05:16:35.005Z,0
2018-02-05T05:17:23.351Z,0
2018-02-05T05:20:08.849Z,0
2018-02-05T05:21:00.678Z,0
2018-02-05T05:21:50.837Z,0
2018-02-05T05:22:49.741Z,0
2018-02-05T05:23:40.389Z,0
2018-02-05T05:24:30.062Z,0
2018-02-05T05:25:23.651Z,0
2018-02-05T05:26:21.010Z,0
2018-02-05T05:27:07.158Z,0
2018-02-05T05:28:05.376Z,0
2018-02-05T05:28:57.138Z,0
2018-02-05T05:29:47.038Z,0
2018-02-05T05:30:43.138Z,0
2018-02-05T05:31:34.800Z,0
2018-02-05T05:32:28.407Z,0
2018-02-05T05:33:19.160Z,0
2018-02-05T05:38:49.915Z,0
2018-02-05T05:39:39.351Z,0
2018-02-05T05:40:26.054Z,0
2018-02-05T05:41:14.550Z,0
2018-02-05T05:42:04.481Z,0
2018-02-05T05:49:24.716Z,0
2018-02-05T05:50:12.778Z,0
2018-02-05T05:54:20.434Z,0
2018-02-05T06:05:03.279Z,0
2018-02-05T06:05:49.732Z,0
2018-02-05T06:06:41.762Z,0
2018-02-05T06:07:29.317Z,0
2018-02-05T06:08:17.986Z,0
2018-02-05T06:09:06.749Z,0
2018-02-05T06:09:57.457Z,0
2018-02-05T06:10:46.589Z,0
2018-02-05T06:11:37.033Z,0
2018-02-05T06:12:25.974Z,0
2018-02-05T06:13:14.198Z,0
2018-02-05T06:14:03.131Z,0
2018-02-05T06:14:51.310Z,0
2018-02-05T06:15:41.803Z,0
2018-02-05T06:16:30.501Z,0
2018-02-05T06:17:19.413Z,0
2018-02-05T06:18:10.547Z,0
2018-02-05T06:18:56.891Z,0
2018-02-05T06:19:45.592Z,0
2018-02-05T06:20:34.238Z,0
2018-02-05T06:21:22.358Z,0
2018-02-05T06:22:11.498Z,0
2018-02-05T06:22:59.636Z,0
2018-02-05T06:23:48.282Z,0
2018-02-05T06:24:36.793Z,0
2018-02-05T06:25:25.474Z,0
2018-02-05T06:26:14.506Z,0
2018-02-05T06:27:02.534Z,0
2018-02-05T06:27:51.579Z,0
2018-02-05T06:28:39.990Z,0
2018-02-05T06:29:28.637Z,0
2018-02-05T06:30:17.532Z,0
2018-02-05T06:31:06.550Z,0
2018-02-05T06:31:54.723Z,0
2018-02-05T06:32:43.532Z,0
2018-02-05T06:33:32.002Z,0
2018-02-05T06:34:20.471Z,0
2018-02-05T06:35:14.144Z,0
2018-02-05T06:36:03.042Z,0
2018-02-05T06:36:51.522Z,0
2018-02-05T06:37:40.014Z,0
2018-02-05T06:38:28.503Z,0
2018-02-05T06:39:17.057Z,0
2018-02-05T06:40:06.024Z,0
2018-02-05T06:40:54.414Z,0
2018-02-05T06:41:42.574Z,0
2018-02-05T06:42:31.290Z,0
2018-02-05T06:43:20.319Z,0
2018-02-05T06:44:11.759Z,0
2018-02-05T06:45:01.309Z,0
2018-02-05T06:45:50.079Z,0
2018-02-05T06:46:38.555Z,0
2018-02-05T06:47:26.866Z,0
2018-02-05T06:48:15.700Z,0
2018-02-05T06:49:05.691Z,0
2018-02-05T06:49:53.752Z,0
2018-02-05T06:50:42.502Z,0
2018-02-05T06:51:31.168Z,0
2018-02-05T06:52:20.587Z,0
2018-02-05T06:53:11.043Z,0
2018-02-05T06:54:00.038Z,0
2018-02-05T06:54:50.140Z,0
2018-02-05T06:55:38.629Z,0
2018-02-05T06:56:27.457Z,0
2018-02-05T06:59:01.344Z,0
2018-02-05T07:01:24.026Z,0
2018-02-05T07:02:12.367Z,0
2018-02-05T07:03:01.413Z,0
2018-02-05T07:03:54.645Z,0
2018-02-05T07:04:46.049Z,0
2018-02-05T07:05:34.594Z,0
2018-02-05T07:06:22.775Z,0
2018-02-05T07:07:11.543Z,0
2018-02-05T07:08:00.062Z,0
2018-02-05T07:08:48.951Z,5
2018-02-05T07:09:37.817Z,5
2018-02-05T07:10:26.179Z,5
2018-02-05T07:11:14.590Z,5
2018-02-05T07:12:03.641Z,10
2018-02-05T07:12:52.289Z,10
2018-02-05T07:13:40.766Z,10
2018-02-05T07:14:29.551Z,10
2018-02-05T07:15:18.415Z,10
2018-02-05T07:16:07.312Z,10
2018-02-05T07:16:55.987Z,10
2018-02-05T07:17:44.966Z,10
2018-02-05T07:18:33.266Z,10
2018-02-05T07:19:21.996Z,10
2018-02-05T07:20:12.974Z,10
2018-02-05T07:21:01.677Z,10
2018-02-05T07:21:50.976Z,15
2018-02-05T07:22:42.361Z,10
2018-02-05T07:23:31.017Z,10
2018-02-05T07:24:20.156Z,15
2018-02-05T07:25:09.569Z,15
2018-02-05T07:25:59.520Z,15
2018-02-05T07:26:48.034Z,20
2018-02-05T07:27:36.728Z,20
2018-02-05T07:28:25.992Z,20
2018-02-05T07:29:14.563Z,20
2018-02-05T07:30:03.575Z,20
2018-02-05T07:30:51.059Z,20
2018-02-05T07:31:41.192Z,20
2018-02-05T07:32:29.043Z,20
2018-02-05T07:33:17.769Z,20
2018-02-05T07:34:08.155Z,20
2018-02-05T07:34:55.556Z,25
2018-02-05T07:35:43.721Z,25
2018-02-05T07:36:34.540Z,25
2018-02-05T07:37:23.528Z,25
2018-02-05T07:43:39.209Z,30
2018-02-05T07:46:15.791Z,30
2018-02-05T07:47:04.617Z,30
2018-02-05T07:47:53.289Z,30
2018-02-05T07:48:42.047Z,30
2018-02-05T07:49:30.516Z,30
2018-02-05T07:50:19.141Z,30
2018-02-05T07:51:07.960Z,30
2018-02-05T07:51:56.230Z,30
2018-02-05T07:52:44.838Z,35
2018-02-05T07:53:34.136Z,35
2018-02-05T07:54:22.926Z,35
2018-02-05T07:55:11.557Z,35
2018-02-05T07:55:59.764Z,35
2018-02-05T07:56:48.911Z,35
2018-02-05T07:57:37.456Z,35
2018-02-05T08:01:54.515Z,35
2018-02-05T08:04:08.378Z,35
2018-02-05T08:04:57.261Z,35
2018-02-05T08:05:46.334Z,35
2018-02-05T08:06:34.664Z,35
2018-02-05T08:07:23.155Z,35
2018-02-05T08:08:12.269Z,35
2018-02-05T08:09:01.222Z,35
2018-02-05T08:09:49.237Z,35
2018-02-05T08:10:37.569Z,35
2018-02-05T08:11:26.969Z,40
2018-02-05T08:12:16.657Z,40
2018-02-05T08:13:06.108Z,40
2018-02-05T08:13:57.759Z,40
2018-02-05T08:21:11.406Z,40
2018-02-05T08:22:01.556Z,40
2018-02-05T08:22:51.242Z,40
2018-02-05T08:25:29.497Z,40
2018-02-05T08:26:19.053Z,40
2018-02-05T08:27:09.271Z,40
2018-02-05T08:27:58.645Z,45
2018-02-05T08:28:49.385Z,45
2018-02-05T08:29:39.673Z,45
2018-02-05T08:30:30.038Z,45
2018-02-05T08:33:11.894Z,45
2018-02-05T08:34:05.204Z,45
2018-02-05T08:34:51.354Z,45
2018-02-05T08:35:43.923Z,45
2018-02-05T08:36:34.233Z,45
2018-02-05T08:38:55.853Z,45
2018-02-05T08:39:44.381Z,45
2018-02-05T08:40:33.201Z,45
2018-02-05T08:41:21.650Z,45
2018-02-05T08:42:10.094Z,45
2018-02-05T08:42:58.718Z,45
2018-02-05T08:43:47.511Z,45
2018-02-05T08:44:36.789Z,45
2018-02-05T08:45:25.209Z,45
2018-02-05T08:46:14.109Z,45
2018-02-05T08:47:03.057Z,45
2018-02-05T08:47:52.661Z,45
2018-02-05T08:48:40.135Z,45
2018-02-05T08:49:28.836Z,45
2018-02-05T08:50:18.049Z,45
2018-02-05T08:51:06.636Z,50
2018-02-05T08:51:55.833Z,50
2018-02-05T08:52:48.126Z,50
2018-02-05T08:53:40.299Z,50
2018-02-05T08:56:39.501Z,50
2018-02-05T08:58:59.610Z,50
2018-02-05T08:59:56.182Z,50
2018-02-05T09:00:39.381Z,50
2018-02-05T09:03:07.607Z,50
2018-02-05T09:03:56.703Z,50
2018-02-05T09:04:45.159Z,50
2018-02-05T09:05:36.439Z,50
2018-02-05T09:06:25.288Z,50
2018-02-05T09:07:14.300Z,50
2018-02-05T09:08:02.976Z,50
2018-02-05T09:08:54.029Z,50
2018-02-05T09:09:45.761Z,50
2018-02-05T09:10:40.345Z,50
2018-02-05T09:11:23.486Z,50
2018-02-05T09:12:04.973Z,50
2018-02-05T09:12:45.688Z,50
2018-02-05T09:13:28.080Z,50
2018-02-05T09:14:09.359Z,50
2018-02-05T09:14:49.487Z,50
2018-02-05T09:15:30.140Z,50
2018-02-05T09:16:11.149Z,50
2018-02-05T09:16:51.572Z,50
2018-02-05T09:17:32.189Z,50
2018-02-05T09:18:13.959Z,50
2018-02-05T09:18:54.388Z,50
2018-02-05T09:19:35.106Z,50
2018-02-05T09:20:17.036Z,50
2018-02-05T09:20:57.295Z,50
2018-02-05T09:21:38.298Z,50
2018-02-05T09:22:19.258Z,50
2018-02-05T09:23:01.624Z,50
2018-02-05T09:23:42.451Z,50
2018-02-05T09:24:22.876Z,50
2018-02-05T09:25:03.556Z,55
2018-02-05T09:25:44.044Z,50
2018-02-05T09:26:24.591Z,55
2018-02-05T09:27:05.398Z,55
2018-02-05T09:27:46.568Z,55
2018-02-05T09:28:28.142Z,55
2018-02-05T09:29:08.703Z,55
2018-02-05T09:29:49.268Z,55
2018-02-05T09:30:30.415Z,55
2018-02-05T09:31:11.096Z,55
2018-02-05T09:31:51.839Z,55
2018-02-05T09:32:33.491Z,55
2018-02-05T09:33:13.994Z,55
2018-02-05T09:33:55.691Z,55
2018-02-05T09:34:36.082Z,55
2018-02-05T09:35:16.434Z,55
2018-02-05T09:35:57.109Z,55
2018-02-05T09:36:39.640Z,55
2018-02-05T09:37:20.332Z,55
2018-02-05T09:38:00.910Z,55
2018-02-05T09:38:42.079Z,55
2018-02-05T09:39:22.740Z,55
2018-02-05T09:40:03.043Z,55
2018-02-05T09:40:43.784Z,55
2018-02-05T09:41:24.181Z,55
2018-02-05T09:42:04.961Z,55
2018-02-05T09:42:45.497Z,55
2018-02-05T09:43:26.235Z,55
2018-02-05T09:44:08.229Z,55
2018-02-05T09:44:48.787Z,55
2018-02-05T09:45:29.374Z,55
2018-02-05T09:46:10.026Z,55
2018-02-05T09:46:50.062Z,55
2018-02-05T09:47:30.758Z,55
2018-02-05T09:48:11.185Z,55
2018-02-05T09:48:52.828Z,55
2018-02-05T09:49:33.600Z,55
2018-02-05T09:50:15.820Z,55
2018-02-05T09:50:56.076Z,55
2018-02-05T09:51:36.804Z,55
2018-02-05T09:52:18.004Z,55
2018-02-05T09:52:58.456Z,50
2018-02-05T09:53:39.221Z,55
2018-02-05T09:54:20.176Z,55
2018-02-05T09:55:00.209Z,50
2018-02-05T09:55:40.845Z,50
2018-02-05T09:56:22.988Z,50
2018-02-05T09:57:03.932Z,50
2018-02-05T09:57:45.283Z,50
2018-02-05T09:58:27.073Z,50
2018-02-05T09:59:08.084Z,50
2018-02-05T09:59:48.318Z,55
2018-02-05T10:00:29.872Z,50
2018-02-05T10:01:10.268Z,50
2018-02-05T10:01:51.709Z,55
2018-02-05T10:02:33.315Z,50
2018-02-05T10:03:13.109Z,50
2018-02-05T10:03:53.340Z,50
2018-02-05T10:04:34.104Z,50
2018-02-05T10:43:55.624Z,50
2018-02-05T10:44:45.907Z,50
2018-02-05T10:45:40.290Z,50
2018-02-05T10:46:19.592Z,50
2018-02-05T10:47:00.333Z,50
2018-02-05T10:47:41.225Z,50
2018-02-05T10:48:22.288Z,50
2018-02-05T10:49:02.740Z,50
2018-02-05T10:49:43.132Z,50
2018-02-05T10:50:25.586Z,50
2018-02-05T10:51:05.784Z,50
2018-02-05T10:51:46.278Z,50
2018-02-05T10:52:27.005Z,50
2018-02-05T10:53:07.447Z,50
2018-02-05T10:53:48.255Z,50
2018-02-05T10:54:29.106Z,50
2018-02-05T10:55:09.799Z,50
2018-02-05T10:55:50.319Z,50
2018-02-05T10:56:30.650Z,50
2018-02-05T10:57:11.126Z,50
2018-02-05T10:57:51.540Z,50
2018-02-05T10:58:32.680Z,50
2018-02-05T10:59:13.546Z,50
2018-02-05T10:59:53.992Z,50
2018-02-05T11:00:34.492Z,50
2018-02-05T11:01:15.519Z,50
2018-02-05T11:01:56.327Z,50
2018-02-05T11:02:37.087Z,50
2018-02-05T11:03:17.838Z,40
2018-02-05T11:03:58.562Z,50
2018-02-05T11:04:39.134Z,50
2018-02-05T11:05:19.553Z,50
2018-02-05T11:05:59.916Z,50
2018-02-05T11:06:40.689Z,50
2018-02-05T11:07:21.046Z,50
2018-02-05T11:08:01.682Z,35
2018-02-05T11:08:42.176Z,50
2018-02-05T11:09:22.652Z,50
2018-02-05T11:10:03.103Z,45
2018-02-05T11:10:43.663Z,50
2018-02-05T11:11:24.086Z,50
2018-02-05T11:12:04.798Z,45
2018-02-05T11:12:45.286Z,50
2018-02-05T11:13:25.857Z,50
2018-02-05T11:14:06.212Z,50
2018-02-05T11:14:46.715Z,50
2018-02-05T11:17:33.417Z,50
2018-02-05T11:18:20.215Z,45
2018-02-05T11:19:08.844Z,50
2018-02-05T11:19:49.241Z,50
2018-02-05T11:20:29.705Z,50
2018-02-05T11:21:10.175Z,50
2018-02-05T11:21:51.318Z,45
2018-02-05T11:22:31.972Z,45
2018-02-05T11:23:12.419Z,50
2018-02-05T11:23:53.206Z,50
2018-02-05T11:24:33.730Z,45
2018-02-05T11:25:15.197Z,45
2018-02-05T11:25:56.194Z,50
2018-02-05T11:26:36.416Z,50
2018-02-05T11:27:17.290Z,40
2018-02-05T11:27:57.794Z,40
2018-02-05T11:28:38.491Z,45
2018-02-05T11:29:19.392Z,45
2018-02-05T11:30:00.143Z,40
2018-02-05T11:30:41.304Z,35
2018-02-05T11:31:22.389Z,40
2018-02-05T11:32:03.492Z,40
2018-02-05T11:32:43.957Z,35
2018-02-05T11:33:25.069Z,40
2018-02-05T11:34:05.620Z,45
2018-02-05T11:34:46.008Z,50
2018-02-05T11:35:26.392Z,50
2018-02-05T11:36:08.206Z,50
2018-02-05T11:36:54.280Z,50
2018-02-05T11:37:35.073Z,50
2018-02-05T11:38:16.377Z,50
2018-02-05T11:38:57.726Z,50
2018-02-05T11:39:38.354Z,50
2018-02-05T11:40:18.780Z,50
2018-02-05T11:41:00.197Z,50
2018-02-05T11:41:40.252Z,50
2018-02-05T11:42:21.664Z,50
2018-02-05T11:43:02.676Z,50
2018-02-05T11:43:43.429Z,50
2018-02-05T11:44:24.550Z,50
2018-02-05T11:45:06.816Z,50
2018-02-05T11:45:46.532Z,50
2018-02-05T11:46:27.436Z,50
2018-02-05T11:47:07.848Z,50
2018-02-05T11:47:48.336Z,50
2018-02-05T11:48:30.336Z,50
2018-02-05T11:49:09.982Z,50
2018-02-05T11:49:50.434Z,50
2018-02-05T11:50:31.723Z,50
2018-02-05T11:51:12.713Z,50
2018-02-05T11:51:54.698Z,50
2018-02-05T11:52:34.546Z,50
2018-02-05T11:53:15.274Z,50
2018-02-05T11:53:55.367Z,50
2018-02-05T11:54:36.688Z,50
2018-02-05T11:55:17.035Z,50
2018-02-05T11:55:58.297Z,50
2018-02-05T11:56:38.742Z,50
2018-02-05T11:57:19.920Z,50
2018-02-05T11:58:02.222Z,50
2018-02-05T11:58:44.232Z,50
2018-02-05T11:59:24.761Z,50
2018-02-05T12:00:06.220Z,50
2018-02-05T12:00:48.247Z,50
2018-02-05T12:01:27.899Z,50
2018-02-05T12:02:08.323Z,50
2018-02-05T12:02:48.783Z,50
2018-02-05T12:03:29.751Z,50
2018-02-05T12:04:10.608Z,50
2018-02-05T12:04:51.194Z,50
2018-02-05T12:05:31.502Z,50
2018-02-05T12:06:12.158Z,50
2018-02-05T12:06:52.506Z,50
2018-02-05T12:09:10.371Z,50
2018-02-05T12:09:53.084Z,50
2018-02-05T12:10:33.161Z,50
2018-02-05T12:11:13.718Z,50
2018-02-05T12:11:54.080Z,50
2018-02-05T12:12:34.527Z,50
2018-02-05T12:13:15.572Z,45
2018-02-05T12:13:56.033Z,50
2018-02-05T12:14:36.562Z,50
2018-02-05T12:15:16.874Z,50
2018-02-05T12:15:57.270Z,50
2018-02-05T12:16:38.235Z,50
2018-02-05T12:17:18.622Z,45
2018-02-05T12:17:59.010Z,45
2018-02-05T12:18:39.390Z,45
2018-02-05T12:19:20.304Z,45
2018-02-05T12:20:00.721Z,45
2018-02-05T12:20:41.152Z,45
2018-02-05T12:21:21.710Z,45
2018-02-05T12:22:02.118Z,45
2018-02-05T12:22:42.609Z,45
2018-02-05T12:23:23.037Z,45
2018-02-05T12:24:03.510Z,45
2018-02-05T12:26:39.552Z,45
2018-02-05T12:27:19.978Z,45
2018-02-05T12:28:00.765Z,45
2018-02-05T12:28:41.682Z,45
2018-02-05T12:29:22.136Z,45
2018-02-05T12:30:03.606Z,45
2018-02-05T12:30:44.163Z,45
2018-02-05T12:31:24.485Z,45
2018-02-05T12:32:04.877Z,45
2018-02-05T12:32:45.399Z,45
2018-02-05T12:33:26.078Z,45
2018-02-05T12:34:06.463Z,45
2018-02-05T12:34:46.869Z,45
2018-02-05T12:35:27.321Z,45
2018-02-05T12:36:07.894Z,45
2018-02-05T12:36:48.275Z,45
2018-02-05T12:37:28.784Z,45
2018-02-05T12:38:09.239Z,45
2018-02-05T12:38:49.637Z,45
2018-02-05T12:39:30.203Z,45
2018-02-05T12:40:10.626Z,45
2018-02-05T12:40:51.090Z,45
2018-02-05T12:41:31.423Z,45
2018-02-05T12:42:11.831Z,45
2018-02-05T12:42:52.272Z,45
2018-02-05T12:43:32.652Z,45
2018-02-05T12:44:13.900Z,45
2018-02-05T12:44:55.464Z,45
2018-02-05T12:45:36.060Z,45
2018-02-05T12:46:16.587Z,45
2018-02-05T12:46:57.153Z,45
2018-02-05T12:47:37.561Z,45
2018-02-05T12:48:18.067Z,45
2018-02-05T12:48:59.380Z,45
2018-02-05T12:52:54.784Z,45
2018-02-05T12:53:35.348Z,45
2018-02-05T12:54:16.535Z,45
2018-02-05T12:54:56.336Z,45
2018-02-05T12:55:36.845Z,45
2018-02-05T12:56:17.289Z,45
2018-02-05T12:56:57.748Z,45
2018-02-05T12:57:38.223Z,45
2018-02-05T12:58:19.544Z,45
2018-02-05T13:00:55.877Z,45
2018-02-05T13:01:36.264Z,45
2018-02-05T13:02:16.676Z,45
2018-02-05T13:04:39.084Z,45
2018-02-05T13:05:19.633Z,45
2018-02-05T13:06:00.154Z,45
2018-02-05T13:06:40.841Z,45
2018-02-05T13:07:21.406Z,45
2018-02-05T13:08:01.957Z,45
2018-02-05T13:08:42.372Z,45
2018-02-05T13:09:22.946Z,45
2018-02-05T13:10:03.439Z,45
2018-02-05T13:10:43.924Z,45
2018-02-05T13:11:26.181Z,45
2018-02-05T13:12:06.658Z,45
2018-02-05T13:12:47.138Z,45
2018-02-05T13:15:29.084Z,45
2018-02-05T13:16:16.748Z,45
2018-02-05T13:16:56.520Z,45
2018-02-05T13:17:36.922Z,45
2018-02-05T13:18:17.373Z,45
2018-02-05T13:18:57.764Z,45
2018-02-05T13:19:38.395Z,45
2018-02-05T13:20:18.892Z,45
2018-02-05T13:21:00.214Z,45
2018-02-05T13:21:40.200Z,45
2018-02-05T13:22:20.782Z,45
2018-02-05T13:23:01.166Z,45
2018-02-05T13:23:42.446Z,45
2018-02-05T13:24:22.860Z,40
2018-02-05T13:27:02.920Z,40
2018-02-05T13:27:42.819Z,40
2018-02-05T13:28:25.153Z,40
2018-02-05T13:29:05.563Z,40
2018-02-05T13:29:47.355Z,40
2018-02-05T13:30:29.478Z,40
2018-02-05T13:31:10.306Z,40
2018-02-05T13:31:50.397Z,40
2018-02-05T13:32:31.883Z,40
2018-02-05T13:33:11.687Z,40
2018-02-05T13:33:53.868Z,40
2018-02-05T13:34:35.448Z,40
2018-02-05T13:35:18.372Z,40
2018-02-05T13:35:58.537Z,40
2018-02-05T13:36:38.843Z,40
2018-02-05T13:37:20.591Z,40
2018-02-05T13:38:00.670Z,40
2018-02-05T13:38:41.336Z,40
2018-02-05T13:39:22.887Z,40
2018-02-05T13:40:03.281Z,40
2018-02-05T13:40:44.513Z,40
2018-02-05T13:41:25.765Z,40
2018-02-05T13:42:05.726Z,40
2018-02-05T13:42:47.527Z,40
2018-02-05T13:43:27.893Z,40
2018-02-05T13:44:08.810Z,40
2018-02-05T13:44:50.849Z,40
2018-02-05T13:45:31.398Z,40
2018-02-05T13:46:12.378Z,40
2018-02-05T13:46:52.961Z,40
2018-02-05T13:47:34.082Z,40
2018-02-05T13:48:14.489Z,40
2018-02-05T13:48:55.775Z,35
2018-02-05T13:49:36.604Z,35
2018-02-05T13:50:17.829Z,35
2018-02-05T13:50:59.445Z,35
2018-02-05T13:51:39.542Z,35
2018-02-05T13:59:37.101Z,35
2018-02-05T14:00:17.650Z,35
2018-02-05T14:00:58.348Z,35
2018-02-05T14:01:39.141Z,35
2018-02-05T14:02:20.326Z,35
2018-02-05T14:03:00.598Z,35
2018-02-05T14:03:41.168Z,35
2018-02-05T14:04:21.902Z,35
2018-02-05T14:05:03.788Z,35
2018-02-05T14:05:43.721Z,35
2018-02-05T14:06:24.801Z,35
2018-02-05T14:07:07.768Z,35
2018-02-05T14:07:49.328Z,30
2018-02-05T14:11:40.518Z,30
2018-02-05T14:14:42.044Z,30
2018-02-05T14:15:22.964Z,30
2018-02-05T14:16:04.952Z,30
2018-02-05T14:16:45.000Z,30
2018-02-05T14:17:26.460Z,30
2018-02-05T14:18:06.624Z,30
2018-02-05T14:18:46.893Z,30
2018-02-05T14:19:28.501Z,30
2018-02-05T14:20:09.387Z,30
2018-02-05T14:20:52.420Z,30
2018-02-05T14:21:32.871Z,30
2018-02-05T14:23:47.688Z,30
2018-02-05T14:24:29.380Z,30
2018-02-05T14:25:09.980Z,30
2018-02-05T14:25:50.657Z,30
2018-02-05T14:26:31.897Z,30
2018-02-05T14:27:12.053Z,30
2018-02-05T14:27:52.478Z,30
2018-02-05T14:28:33.240Z,30
2018-02-05T14:29:13.914Z,30
2018-02-05T14:29:55.498Z,30
2018-02-05T14:30:36.034Z,30
2018-02-05T14:31:17.380Z,30
2018-02-05T14:31:58.682Z,30
2018-02-05T14:32:38.671Z,30
2018-02-05T14:33:19.917Z,30
2018-02-05T14:38:40.509Z,30
2018-02-05T14:39:20.938Z,30
2018-02-05T14:40:01.360Z,30
2018-02-05T14:42:43.076Z,30
2018-02-05T14:43:22.189Z,30
2018-02-05T14:44:03.175Z,30
2018-02-05T14:44:43.382Z,30
2018-02-05T14:45:24.052Z,30
2018-02-05T14:46:04.833Z,30
2018-02-05T14:46:45.287Z,30
2018-02-05T14:47:26.310Z,30
2018-02-05T14:48:06.936Z,30
2018-02-05T14:48:48.023Z,30
2018-02-05T14:49:28.927Z,30
2018-02-05T14:50:09.384Z,30
2018-02-05T14:50:50.302Z,30
2018-02-05T14:51:30.943Z,30
2018-02-05T14:52:12.278Z,30
2018-02-05T14:52:53.158Z,30
2018-02-05T14:53:33.722Z,30
2018-02-05T14:54:14.985Z,30
2018-02-05T14:54:55.437Z,30
2018-02-05T14:55:35.829Z,30
2018-02-05T14:56:16.447Z,30
2018-02-05T14:56:56.938Z,30
2018-02-05T14:57:37.517Z,30
2018-02-05T14:58:18.171Z,30
2018-02-05T15:00:54.057Z,30
2018-02-05T15:01:48.586Z,35
2018-02-05T15:02:43.755Z,35
2018-02-05T15:03:36.854Z,35
2018-02-05T15:04:21.951Z,35
2018-02-05T15:05:04.256Z,35
2018-02-05T15:05:44.469Z,35
2018-02-05T15:06:40.963Z,40
2018-02-05T15:08:55.466Z,90
2018-02-05T15:09:41.842Z,100
2018-02-05T15:10:22.178Z,100
2018-02-05T15:11:04.525Z,100
2018-02-05T15:11:44.242Z,95
2018-02-05T15:12:25.097Z,100
2018-02-05T15:13:05.529Z,105
2018-02-05T15:13:46.020Z,105
2018-02-05T15:14:27.070Z,100
2018-02-05T15:15:07.587Z,100
2018-02-05T15:15:47.938Z,100
2018-02-05T15:16:28.338Z,100
2018-02-05T15:17:08.741Z,90
2018-02-05T15:17:49.856Z,90
2018-02-05T15:18:30.510Z,90
2018-02-05T15:19:10.910Z,95
2018-02-05T15:19:51.304Z,100
2018-02-05T15:20:31.727Z,95
2018-02-05T15:21:12.103Z,90
2018-02-05T15:23:35.368Z,90
2018-02-05T15:24:15.797Z,90
2018-02-05T15:24:56.436Z,85
2018-02-05T15:25:36.789Z,85
2018-02-05T15:26:18.163Z,90
2018-02-05T15:26:58.169Z,90
2018-02-05T15:27:39.047Z,90
2018-02-05T15:28:19.469Z,85
2018-02-05T15:29:00.466Z,80
2018-02-05T15:29:40.876Z,80
2018-02-05T15:30:22.092Z,75
2018-02-05T15:31:02.759Z,80
2018-02-05T15:31:42.965Z,80
2018-02-05T15:32:23.347Z,75
2018-02-05T15:33:04.374Z,75
2018-02-05T15:33:45.408Z,75
2018-02-05T15:34:25.772Z,70
2018-02-05T15:35:06.228Z,70
2018-02-05T15:35:46.577Z,70
2018-02-05T15:36:27.371Z,70
2018-02-05T15:37:07.903Z,80
2018-02-05T15:39:46.443Z,100
2018-02-05T15:40:27.911Z,100
2018-02-05T15:41:08.076Z,100
2018-02-05T15:41:50.160Z,95
2018-02-05T15:42:29.715Z,85
2018-02-05T15:43:10.429Z,70
2018-02-05T15:43:50.913Z,60
2018-02-05T15:44:31.292Z,50
2018-02-05T15:45:11.693Z,45
2018-02-05T15:45:53.070Z,40
2018-02-05T15:46:33.472Z,40
2018-02-05T15:47:14.130Z,40
2018-02-05T15:47:54.545Z,40
2018-02-05T15:48:35.264Z,35
2018-02-05T15:49:15.627Z,35
2018-02-05T15:49:56.035Z,35
2018-02-05T15:50:36.466Z,35
2018-02-05T15:51:16.799Z,30
2018-02-05T15:51:57.195Z,25
2018-02-05T15:52:37.585Z,25
2018-02-05T15:53:18.283Z,25
2018-02-05T15:53:58.532Z,25
2018-02-05T15:56:19.729Z,20
2018-02-05T15:57:00.560Z,20
2018-02-05T15:57:40.695Z,20
2018-02-05T15:58:21.274Z,20
2018-02-05T15:59:01.647Z,20
2018-02-05T15:59:42.062Z,15
2018-02-05T16:00:22.427Z,15
2018-02-05T16:01:02.923Z,15
2018-02-05T16:01:43.211Z,15
2018-02-05T16:04:17.503Z,15
2018-02-05T16:43:53.397Z,0
2018-02-05T16:44:47.116Z,0
2018-02-05T16:47:08.620Z,0
2018-02-05T16:47:49.027Z,0
2018-02-05T16:48:29.464Z,0
2018-02-05T16:49:09.870Z,0
2018-02-05T16:49:50.271Z,0
2018-02-05T16:50:30.845Z,0
2018-02-05T16:51:12.159Z,0
2018-02-05T16:51:52.487Z,0
2018-02-05T16:52:32.915Z,0
2018-02-05T16:53:13.333Z,0
2018-02-05T16:55:28.867Z,0
2018-02-05T16:56:09.260Z,0
2018-02-05T16:56:50.523Z,0
2018-02-05T16:57:30.906Z,0
2018-02-05T17:00:11.882Z,0
2018-02-05T17:00:52.282Z,0
2018-02-05T17:01:32.648Z,0
2018-02-05T17:02:13.081Z,0
2018-02-05T17:02:53.489Z,0
2018-02-05T17:03:33.880Z,0
2018-02-05T17:04:14.290Z,0
2018-02-05T17:04:54.628Z,0
2018-02-05T17:05:35.059Z,0
2018-02-05T17:06:15.417Z,0
2018-02-05T17:06:55.842Z,0
2018-02-05T17:07:36.197Z,0
2018-02-05T17:08:16.581Z,0
2018-02-05T17:08:56.979Z,0
2018-02-05T17:09:37.348Z,0
2018-02-05T17:10:17.726Z,0
2018-02-05T17:10:58.243Z,0
2018-02-05T17:11:38.571Z,0
2018-02-05T17:12:19.053Z,0
2018-02-05T17:12:59.433Z,0
2018-02-05T17:13:39.831Z,0
2018-02-05T17:14:20.257Z,0
2018-02-05T17:15:00.681Z,0
2018-02-05T17:15:41.029Z,0
2018-02-05T17:16:21.464Z,0
2018-02-05T17:17:01.859Z,0
2018-02-05T17:17:42.276Z,0
2018-02-05T17:18:22.651Z,0
2018-02-05T17:19:03.062Z,0
2018-02-05T17:19:43.460Z,0
2018-02-05T17:20:23.919Z,0
2018-02-05T17:21:04.250Z,0
2018-02-05T17:21:44.664Z,0
2018-02-05T17:22:25.107Z,0
2018-02-05T17:23:05.534Z,0
2018-02-05T17:23:45.903Z,0
2018-02-05T17:24:26.522Z,0
2018-02-05T17:25:06.906Z,0
2018-02-05T17:25:47.311Z,0
2018-02-05T17:26:27.764Z,0
2018-02-05T17:27:08.112Z,0
2018-02-05T17:27:48.515Z,0
2018-02-05T17:28:28.919Z,0
2018-02-05T17:29:09.391Z,0
2018-02-05T17:29:49.734Z,0
2018-02-05T17:30:30.223Z,0
2018-02-05T17:31:10.626Z,0
2018-02-05T17:31:51.034Z,0
2018-02-05T17:32:31.547Z,0
2018-02-05T17:33:11.925Z,0
2018-02-05T17:33:52.301Z,0
2018-02-05T17:34:32.917Z,0
2018-02-05T17:35:13.153Z,0
2018-02-05T17:35:53.615Z,0
2018-02-05T17:36:34.023Z,0
2018-02-05T17:37:14.374Z,0
2018-02-05T17:37:54.828Z,0
2018-02-05T17:38:35.222Z,0
2018-02-05T17:39:15.712Z,0
2018-02-05T17:39:56.094Z,0
2018-02-05T17:40:36.526Z,0
2018-02-05T17:41:16.869Z,0
2018-02-05T17:41:57.315Z,0
2018-02-05T17:42:37.927Z,0
2018-02-05T17:43:18.327Z,0
2018-02-05T17:43:58.786Z,0
2018-02-05T17:44:39.134Z,0
2018-02-05T17:45:19.548Z,0
2018-02-05T17:45:59.976Z,0
2018-02-05T17:46:40.370Z,0
2018-02-05T17:47:20.743Z,0
2018-02-05T17:48:01.183Z,0
2018-02-05T17:48:41.588Z,0
2018-02-05T17:49:22.002Z,0
2018-02-05T17:50:02.377Z,0
2018-02-05T17:50:42.821Z,0
2018-02-05T17:51:23.184Z,0
2018-02-05T17:52:03.725Z,0
2018-02-05T17:52:44.089Z,0
2018-02-05T17:53:24.536Z,0
2018-02-05T17:54:04.896Z,0
2018-02-05T17:54:45.392Z,0
2018-02-05T17:55:25.749Z,0
2018-02-05T17:56:06.159Z,0
2018-02-05T17:56:46.547Z,0
2018-02-05T17:57:26.917Z,0
2018-02-05T17:58:07.382Z,0
2018-02-05T17:58:47.750Z,0
2018-02-05T17:59:28.264Z,0
2018-02-05T18:00:09.360Z,0
2018-02-05T18:00:49.657Z,0
2018-02-05T18:01:29.963Z,0
2018-02-05T18:02:10.348Z,0
2018-02-05T18:02:50.771Z,0
2018-02-05T18:03:31.159Z,0
2018-02-05T18:04:11.548Z,0
2018-02-05T18:04:51.966Z,0
2018-02-05T18:05:32.350Z,0
2018-02-05T18:06:12.795Z,0
2018-02-05T18:06:53.212Z,0
2018-02-05T18:07:33.562Z,0
2018-02-05T18:08:14.123Z,0
2018-02-05T18:08:54.373Z,0
2018-02-05T18:09:34.707Z,0
2018-02-05T18:10:15.113Z,0
2018-02-05T18:10:55.620Z,0
2018-02-05T18:11:35.959Z,0
2018-02-05T18:12:16.359Z,0
2018-02-05T18:12:56.759Z,0